Time;durP1;ratioP1;P1;durP2;ratioP2;P2;SDS_P1;SDS_P2;PMS_P1;PMS_P2;Temp;Humidity;BMP_temperature;BMP_pressure;BME280_temperature;BME280_humidity;BME280_pressure;Samples;Min_cycle;Max_cycle;Signal;HPM_P1;HPM_P2
2023/12/28 17:06:21;;;;;;;;;11.33;5.67;;;;;11.35;100.00;101262.34;5067022;28;45353;-72
2023/12/28 17:08:47;;;;;;;;;2.33;2.33;;;;;11.77;100.00;101299.22;5066510;27;45693;-73
2023/12/28 17:11:16;;;;;;;;;3.00;3.00;;;;;11.62;100.00;101276.97;5055195;28;46282;-74
2023/12/28 17:13:42;;;;;;;;;2.33;2.33;;;;;11.57;100.00;101283.84;5056642;28;45489;-74
2023/12/28 17:16:08;;;;;;;;;4.00;4.00;;;;;11.43;100.00;101287.84;5054988;28;46472;-76
2023/12/28 17:18:34;;;;;;;;;5.33;3.67;;;;;11.45;100.00;101306.75;5054846;28;45588;-76
2023/12/28 17:20:59;;;;;;;;;1.33;1.33;;;;;11.55;100.00;101340.28;5055193;28;45492;-76
2023/12/28 17:23:29;;;;;;;;;2.00;2.00;;;;;11.62;100.00;101346.88;5054531;28;45354;-76
2023/12/28 17:26:04;;;;;;;;;2.00;2.00;;;;;11.20;100.00;101291.81;5055411;27;45422;-75
2023/12/28 17:28:37;;;;;;;;;3.00;3.00;;;;;11.63;100.00;101352.19;5053218;28;45260;-75
2023/12/28 17:31:07;;;;;;;;;6.33;3.33;;;;;11.33;100.00;101295.13;5052617;27;45336;-75
2023/12/28 17:33:33;;;;;;;;;6.00;3.00;;;;;11.35;100.00;101306.72;5071275;28;45368;-75
2023/12/28 17:35:59;;;;;;;;;5.67;5.00;;;;;11.57;100.00;101344.59;5050274;28;46874;-74
2023/12/28 17:38:25;;;;;;;;;5.33;4.00;;;;;11.49;100.00;101344.44;5055052;28;45375;-77
2023/12/28 17:40:50;;;;;;;;;3.00;3.00;;;;;10.93;100.00;101259.81;5054648;28;45459;-75
2023/12/28 17:43:22;;;;;;;;;3.00;3.00;;;;;10.97;100.00;101268.53;5054457;28;45743;-74
2023/12/28 17:46:04;;;;;;;;;3.00;3.00;;;;;11.14;100.00;101306.81;5085337;27;45966;-74
2023/12/28 17:48:33;;;;;;;;;4.00;3.00;;;;;10.88;100.00;101268.38;5051412;28;45329;-74
2023/12/28 17:51:00;;;;;;;;;5.67;3.33;;;;;11.00;100.00;101301.78;5054514;28;45438;-73
2023/12/28 17:53:25;;;;;;;;;2.00;1.00;;;;;11.20;100.00;101357.09;5055696;28;45451;-75
2023/12/28 17:55:51;;;;;;;;;3.67;2.33;;;;;11.04;100.00;101324.97;5054213;28;45325;-74
2023/12/28 17:58:17;;;;;;;;;3.00;2.00;;;;;11.06;100.00;101335.69;5051534;28;45949;-75
2023/12/28 18:00:42;;;;;;;;;1.00;1.00;;;;;10.85;100.00;101290.41;5049868;28;45179;-75
2023/12/28 18:03:07;;;;;;;;;3.00;3.00;;;;;11.32;100.00;101365.00;5053161;28;45343;-75
2023/12/28 18:05:33;;;;;;;;;2.67;2.67;;;;;10.90;100.00;101306.31;5054229;28;53989;-74
2023/12/28 18:07:58;;;;;;;;;2.00;2.00;;;;;11.26;100.00;101361.97;5053819;27;45630;-74
2023/12/28 18:10:23;;;;;;;;;2.00;2.00;;;;;10.88;100.00;101308.31;5054969;28;45227;-73
2023/12/28 18:12:49;;;;;;;;;4.33;4.00;;;;;10.72;100.00;101303.38;5048538;28;45488;-74
2023/12/28 18:15:16;;;;;;;;;1.00;1.00;;;;;10.68;100.00;101296.47;5053012;28;45481;-74
2023/12/28 18:17:41;;;;;;;;;3.33;3.33;;;;;10.68;100.00;101291.03;5039349;28;45656;-75
2023/12/28 18:20:08;;;;;;;;;3.33;2.33;;;;;10.59;100.00;101272.84;5041272;28;45326;-74
2023/12/28 18:22:33;;;;;;;;;3.33;3.00;;;;;10.71;100.00;101292.63;5039707;28;45572;-74
2023/12/28 18:24:59;;;;;;;;;3.33;3.33;;;;;10.49;100.00;101266.50;5041352;28;45405;-74
2023/12/28 18:27:24;;;;;;;;;4.00;4.00;;;;;10.36;100.00;101250.44;5041253;28;46888;-74
2023/12/28 18:29:52;;;;;;;;;3.33;2.67;;;;;10.72;100.00;101308.81;5040124;28;45440;-76
2023/12/28 18:32:17;;;;;;;;;4.00;4.00;;;;;10.72;100.00;101314.25;5041285;28;45296;-74
2023/12/28 18:34:46;;;;;;;;;4.67;3.00;;;;;10.58;100.00;101300.16;5040887;28;45311;-74
2023/12/28 18:37:12;;;;;;;;;3.00;3.00;;;;;10.65;100.00;101318.50;5040597;28;45340;-74
2023/12/28 18:39:38;;;;;;;;;4.67;3.00;;;;;10.90;100.00;101361.53;5041208;28;45470;-75
2023/12/28 18:42:06;;;;;;;;;4.00;3.00;;;;;10.35;100.00;101267.72;5040758;28;45495;-75
2023/12/28 18:44:34;;;;;;;;;5.67;5.00;;;;;10.87;100.00;101356.38;5041193;28;45644;-75
2023/12/28 18:47:01;;;;;;;;;5.67;5.67;;;;;10.81;100.00;101366.94;5040445;28;45231;-74
2023/12/28 18:49:26;;;;;;;;;5.00;5.00;;;;;10.01;100.00;101226.31;5041004;28;45180;-76
2023/12/28 18:51:52;;;;;;;;;4.00;4.00;;;;;10.80;100.00;101352.50;5041167;28;45483;-74
2023/12/28 18:54:17;;;;;;;;;4.00;4.00;;;;;10.67;100.00;101340.09;5040748;28;46231;-75
2023/12/28 18:56:42;;;;;;;;;4.00;3.67;;;;;10.76;100.00;101361.03;5039245;27;45393;-74
2023/12/28 18:59:07;;;;;;;;;6.00;6.00;;;;;10.62;100.00;101339.63;5041204;28;45321;-75
2023/12/28 19:01:33;;;;;;;;;7.33;3.00;;;;;10.63;100.00;101339.50;5035854;28;45465;-74
2023/12/28 19:03:58;;;;;;;;;6.00;4.00;;;;;10.43;100.00;101318.66;5040373;28;45434;-75
2023/12/28 19:06:23;;;;;;;;;7.67;6.00;;;;;10.12;100.00;101271.53;5036262;27;45430;-75
2023/12/28 19:08:49;;;;;;;;;9.00;5.67;;;;;10.26;100.00;101292.09;5041469;27;45297;-75
2023/12/28 19:11:15;;;;;;;;;9.00;4.00;;;;;10.45;100.00;101316.66;5036933;28;45365;-75
2023/12/28 19:13:42;;;;;;;;;9.00;8.00;;;;;10.50;100.00;101347.03;5034659;27;46938;-75
2023/12/28 19:16:15;;;;;;;;;9.00;6.00;;;;;9.99;100.00;101265.44;5037134;28;45243;-74
2023/12/28 19:18:41;;;;;;;;;9.33;5.00;;;;;9.86;100.00;101243.94;5041026;28;45377;-74
2023/12/28 19:21:06;;;;;;;;;10.00;5.00;;;;;10.64;100.00;101376.56;5041668;28;45356;-75
2023/12/28 19:23:31;;;;;;;;;5.67;5.00;;;;;10.35;100.00;101313.91;5032877;28;51929;-75
2023/12/28 19:25:56;;;;;;;;;6.00;5.00;;;;;10.62;100.00;101345.94;5039185;28;47680;-74
2023/12/28 19:28:22;;;;;;;;;7.00;5.33;;;;;10.68;100.00;101367.13;5032467;27;55672;-75
2023/12/28 19:30:47;;;;;;;;;4.67;3.33;;;;;10.46;100.00;101340.09;5038299;27;45240;-73
2023/12/28 19:33:12;;;;;;;;;8.00;6.67;;;;;10.53;100.00;101357.59;5038128;28;46524;-73
2023/12/28 19:35:38;;;;;;;;;9.00;9.00;;;;;10.49;100.00;101353.44;5036515;28;45269;-74
2023/12/28 19:38:04;;;;;;;;;5.00;5.00;;;;;10.45;100.00;101341.09;5036276;28;45209;-75
2023/12/28 19:40:29;;;;;;;;;9.67;9.00;;;;;9.78;100.00;101224.75;5037524;27;45553;-74
2023/12/28 19:42:54;;;;;;;;;8.00;6.00;;;;;10.40;100.00;101325.22;5035767;28;46186;-75
2023/12/28 19:45:20;;;;;;;;;6.67;6.00;;;;;10.38;100.00;101331.75;5035823;28;45321;-75
2023/12/28 19:47:45;;;;;;;;;9.33;8.67;;;;;10.60;100.00;101355.22;5031748;28;45371;-75
2023/12/28 19:50:12;;;;;;;;;6.00;6.00;;;;;10.11;100.00;101280.69;5030977;28;45596;-75
2023/12/28 19:52:39;;;;;;;;;5.33;5.33;;;;;10.05;100.00;101276.66;5035372;28;45492;-75
2023/12/28 19:55:05;;;;;;;;;8.67;6.00;;;;;10.11;100.00;101303.25;5038773;28;45096;-74
2023/12/28 19:57:30;;;;;;;;;9.00;7.33;;;;;10.11;100.00;101300.53;5037585;27;45367;-75
2023/12/28 19:59:56;;;;;;;;;4.33;4.00;;;;;10.23;100.00;101312.22;5041082;28;45491;-74
2023/12/28 20:02:24;;;;;;;;;9.00;6.67;;;;;10.41;100.00;101339.66;5036110;28;45546;-74
2023/12/28 20:04:50;;;;;;;;;6.67;5.00;;;;;10.30;100.00;101318.84;5038588;28;45615;-73
2023/12/28 20:07:15;;;;;;;;;8.00;8.00;;;;;10.16;100.00;101316.44;5037688;28;45388;-75
2023/12/28 20:09:40;;;;;;;;;9.00;6.00;;;;;10.30;100.00;101328.88;5030830;28;45363;-75
2023/12/28 20:12:06;;;;;;;;;10.67;6.00;;;;;9.71;100.00;101231.69;5037132;28;46494;-76
2023/12/28 20:14:31;;;;;;;;;8.33;6.67;;;;;10.29;100.00;101347.03;5038458;28;45475;-74
2023/12/28 20:16:57;;;;;;;;;5.00;2.00;;;;;9.73;100.00;101254.09;5036944;28;45709;-74
2023/12/28 20:19:22;;;;;;;;;6.00;6.00;;;;;10.31;100.00;101355.00;5039951;28;45479;-74
2023/12/28 20:21:47;;;;;;;;;5.67;5.67;;;;;10.31;100.00;101364.03;5038712;27;45413;-74
2023/12/28 20:24:13;;;;;;;;;9.00;6.00;;;;;10.49;100.00;101395.06;5038879;28;45413;-74
2023/12/28 20:26:39;;;;;;;;;6.67;6.67;;;;;10.44;100.00;101381.03;5033310;27;45499;-74
2023/12/28 20:29:05;;;;;;;;;8.67;8.67;;;;;10.04;100.00;101307.50;5040200;28;45469;-75
2023/12/28 20:31:31;;;;;;;;;7.67;6.00;;;;;10.11;100.00;101316.84;5033402;28;46830;-74
2023/12/28 20:33:57;;;;;;;;;9.00;7.00;;;;;9.96;100.00;101310.00;5039421;28;45396;-75
2023/12/28 20:36:23;;;;;;;;;9.67;7.67;;;;;10.26;100.00;101373.56;5034057;27;45499;-74
2023/12/28 20:38:49;;;;;;;;;11.00;9.67;;;;;10.07;100.00;101345.25;5038435;28;45425;-75
2023/12/28 20:41:18;;;;;;;;;6.00;6.00;;;;;10.39;100.00;101387.81;5038346;28;46749;-74
2023/12/28 20:43:43;;;;;;;;;6.00;5.33;;;;;10.37;100.00;101378.97;5038326;28;45418;-74
2023/12/28 20:46:09;;;;;;;;;10.00;6.00;;;;;9.60;100.00;101267.00;5033995;28;45513;-74
2023/12/28 20:48:34;;;;;;;;;9.00;6.67;;;;;9.89;100.00;101311.50;5029486;28;45388;-75
2023/12/28 20:51:00;;;;;;;;;9.00;8.00;;;;;9.47;100.00;101241.91;5034656;28;59380;-74
2023/12/28 20:53:27;;;;;;;;;6.33;5.33;;;;;10.07;100.00;101342.53;5034672;28;45298;-76
2023/12/28 20:55:52;;;;;;;;;5.00;5.00;;;;;9.73;100.00;101292.94;5029975;28;45461;-74
2023/12/28 20:58:17;;;;;;;;;4.33;3.33;;;;;9.58;100.00;101277.97;5039317;28;45534;-74
2023/12/28 21:00:43;;;;;;;;;12.00;5.67;;;;;10.29;100.00;101392.34;5036472;28;46391;-75
2023/12/28 21:03:08;;;;;;;;;5.33;5.33;;;;;9.69;100.00;101296.94;5038782;28;45422;-74
2023/12/28 21:05:33;;;;;;;;;6.00;5.00;;;;;10.02;100.00;101347.47;5037002;28;45254;-74
2023/12/28 21:07:59;;;;;;;;;5.00;4.00;;;;;9.48;100.00;101266.19;5035391;27;45148;-74
2023/12/28 21:10:24;;;;;;;;;5.00;5.00;;;;;9.95;100.00;101335.41;5036088;28;53053;-74
2023/12/28 21:13:00;;;;;;;;;6.33;5.33;;;;;9.80;100.00;101308.72;5037296;28;45230;-74
2023/12/28 21:15:26;;;;;;;;;8.00;5.33;;;;;10.31;100.00;101407.47;5037027;28;45261;-73
2023/12/28 21:17:51;;;;;;;;;8.00;5.67;;;;;10.31;100.00;101420.19;5038011;28;45426;-75
2023/12/28 21:20:16;;;;;;;;;7.33;6.33;;;;;10.02;100.00;101352.91;5036902;27;53822;-74
2023/12/28 21:22:42;;;;;;;;;5.00;5.00;;;;;10.09;100.00;101367.69;5034242;28;48327;-74
2023/12/28 21:25:07;;;;;;;;;5.33;5.00;;;;;9.97;100.00;101348.88;5038084;28;45479;-74
2023/12/28 21:27:32;;;;;;;;;1.00;1.00;;;;;10.24;100.00;101399.97;5037216;27;45383;-74
2023/12/28 21:29:58;;;;;;;;;10.00;5.00;;;;;9.02;100.00;101174.28;5038759;28;45403;-74
2023/12/28 21:32:23;;;;;;;;;9.33;6.00;;;;;9.26;100.00;101223.72;5033062;28;45370;-73
2023/12/28 21:34:48;;;;;;;;;4.33;3.00;;;;;9.85;100.00;101322.78;5038881;28;45509;-73
2023/12/28 21:37:14;;;;;;;;;4.00;4.00;;;;;9.91;100.00;101342.13;5034889;28;45608;-74
2023/12/28 21:39:40;;;;;;;;;9.67;6.00;;;;;9.67;100.00;101289.91;5038980;28;45559;-74
2023/12/28 21:42:06;;;;;;;;;5.00;5.00;;;;;10.01;100.00;101356.59;5032293;28;45448;-74
2023/12/28 21:44:31;;;;;;;;;5.33;5.33;;;;;9.40;100.00;101256.97;5038849;27;45436;-74
2023/12/28 21:46:57;;;;;;;;;4.33;3.00;;;;;8.88;100.00;101161.00;5032211;28;45257;-73
2023/12/28 21:49:22;;;;;;;;;3.00;3.00;;;;;9.22;100.00;101222.25;5034143;28;47220;-74
2023/12/28 21:51:48;;;;;;;;;3.33;1.67;;;;;10.10;100.00;101382.97;5036399;28;45575;-74
2023/12/28 21:54:13;;;;;;;;;5.00;2.00;;;;;9.51;100.00;101265.91;5042057;28;45285;-74
2023/12/28 21:56:39;;;;;;;;;4.00;4.00;;;;;8.68;100.00;101134.72;5040026;28;45474;-74
2023/12/28 21:59:04;;;;;;;;;3.67;3.67;;;;;9.85;100.00;101349.91;5041304;28;46443;-74
2023/12/28 22:01:29;;;;;;;;;10.67;5.00;;;;;10.15;100.00;101391.59;5038151;28;45325;-74
2023/12/28 22:03:55;;;;;;;;;6.33;4.00;;;;;9.77;100.00;101326.13;5040759;28;45510;-74
2023/12/28 22:06:20;;;;;;;;;5.00;3.67;;;;;9.80;100.00;101330.41;5038410;28;45499;-75
2023/12/28 22:08:46;;;;;;;;;3.00;3.00;;;;;9.50;100.00;101274.16;5042177;27;45342;-74
2023/12/28 22:11:12;;;;;;;;;5.67;4.00;;;;;9.74;100.00;101299.25;5037709;28;45399;-74
2023/12/28 22:13:38;;;;;;;;;9.33;4.00;;;;;10.05;100.00;101365.38;5039281;28;45471;-74
2023/12/28 22:16:04;;;;;;;;;2.00;0.33;;;;;9.62;100.00;101286.72;5039978;28;45746;-74
2023/12/28 22:18:29;;;;;;;;;2.00;2.00;;;;;9.93;100.00;101352.84;5056464;28;46170;-74
2023/12/28 22:20:55;;;;;;;;;6.33;3.00;;;;;9.88;100.00;101345.06;5035403;28;45500;-74
2023/12/28 22:23:20;;;;;;;;;4.67;3.67;;;;;9.86;100.00;101347.06;5038440;28;45827;-74
2023/12/28 22:25:46;;;;;;;;;5.00;2.00;;;;;9.45;100.00;101281.84;5039768;28;45586;-74
2023/12/28 22:28:11;;;;;;;;;2.00;2.00;;;;;9.61;100.00;101296.72;5041513;28;45319;-74
2023/12/28 22:30:37;;;;;;;;;4.00;4.00;;;;;10.03;100.00;101370.91;5039854;28;49537;-74
2023/12/28 22:33:02;;;;;;;;;10.00;3.00;;;;;9.69;100.00;101324.06;5051063;27;45352;-74
2023/12/28 22:35:28;;;;;;;;;3.67;3.67;;;;;9.80;100.00;101342.13;5038734;28;45551;-74
2023/12/28 22:37:53;;;;;;;;;6.50;3.00;;;;;9.82;100.00;101329.31;5035631;28;45850;-74
2023/12/28 22:40:18;;;;;;;;;3.00;3.00;;;;;9.95;100.00;101365.28;5035487;28;45309;-74
2023/12/28 22:42:44;;;;;;;;;4.33;2.00;;;;;9.27;100.00;101252.56;5037218;28;45316;-74
2023/12/28 22:45:09;;;;;;;;;0.00;0.00;;;;;9.61;100.00;101309.41;5041088;28;45248;-74
2023/12/28 22:47:35;;;;;;;;;6.67;3.00;;;;;9.45;100.00;101279.13;5036498;28;46304;-75
2023/12/28 22:50:00;;;;;;;;;4.67;3.00;;;;;9.96;100.00;101375.16;5040079;28;45240;-75
2023/12/28 22:52:26;;;;;;;;;6.00;2.33;;;;;9.96;100.00;101372.44;5034883;28;45431;-75
2023/12/28 22:54:51;;;;;;;;;3.00;3.00;;;;;9.93;100.00;101369.13;5040466;28;45216;-75
2023/12/28 22:57:16;;;;;;;;;10.00;4.00;;;;;8.97;100.00;101220.75;5038448;28;45341;-75
2023/12/28 22:59:42;;;;;;;;;4.00;1.33;;;;;9.87;100.00;101391.34;5041539;27;45400;-75
2023/12/28 23:02:07;;;;;;;;;3.67;3.67;;;;;9.88;100.00;101383.06;5039046;28;45483;-75
2023/12/28 23:04:32;;;;;;;;;2.00;2.00;;;;;9.02;100.00;101231.19;5039778;28;45442;-76
2023/12/28 23:06:58;;;;;;;;;3.33;1.00;;;;;9.75;100.00;101366.97;5038923;28;45447;-75
2023/12/28 23:09:23;;;;;;;;;3.00;3.00;;;;;9.26;100.00;101288.81;5036286;28;50937;-75
2023/12/28 23:11:49;;;;;;;;;3.00;3.00;;;;;8.88;100.00;101217.91;5037265;28;47519;-75
2023/12/28 23:14:15;;;;;;;;;2.00;2.00;;;;;9.34;100.00;101296.31;5040016;28;45679;-75
2023/12/28 23:16:40;;;;;;;;;1.33;1.33;;;;;9.49;100.00;101326.72;5038669;28;45437;-74
2023/12/28 23:19:05;;;;;;;;;2.00;2.00;;;;;9.26;100.00;101277.09;5040814;28;45460;-75
2023/12/28 23:21:31;;;;;;;;;2.33;1.33;;;;;9.66;100.00;101353.28;5037689;28;45598;-75
2023/12/28 23:23:56;;;;;;;;;4.00;2.00;;;;;9.73;100.00;101365.34;5041474;28;45344;-75
2023/12/28 23:26:22;;;;;;;;;6.00;2.00;;;;;9.87;100.00;101383.19;5034252;27;45573;-75
2023/12/28 23:28:48;;;;;;;;;1.67;1.00;;;;;9.48;100.00;101309.59;5040866;28;45474;-75
2023/12/28 23:31:14;;;;;;;;;4.00;2.67;;;;;9.58;100.00;101329.50;5035762;28;45249;-75
2023/12/28 23:33:40;;;;;;;;;5.33;3.00;;;;;9.42;100.00;101303.81;5041327;28;45235;-75
2023/12/28 23:36:08;;;;;;;;;4.33;1.00;;;;;9.89;100.00;101395.66;5035978;28;45212;-75
2023/12/28 23:38:34;;;;;;;;;4.33;3.00;;;;;9.70;100.00;101352.94;5037012;28;45513;-75
2023/12/28 23:40:59;;;;;;;;;6.33;2.00;;;;;9.46;100.00;101297.13;5034233;28;45598;-75
2023/12/28 23:43:25;;;;;;;;;7.33;1.67;;;;;9.43;100.00;101295.53;5044795;28;45447;-75
2023/12/28 23:45:52;;;;;;;;;2.00;2.00;;;;;9.96;100.00;101374.28;5037111;27;48091;-75
2023/12/28 23:48:17;;;;;;;;;2.00;1.67;;;;;9.40;100.00;101275.94;5039915;28;45339;-75
2023/12/28 23:50:43;;;;;;;;;1.00;1.00;;;;;9.49;100.00;101305.03;5037706;28;45307;-75
2023/12/28 23:53:08;;;;;;;;;2.33;1.00;;;;;9.81;100.00;101349.28;5038594;28;45268;-75
2023/12/28 23:55:33;;;;;;;;;4.00;2.00;;;;;9.00;100.00;101208.75;5037405;28;47523;-75
2023/12/28 23:57:59;;;;;;;;;4.00;3.00;;;;;9.85;100.00;101364.34;5037296;28;45190;-75
